Terminal Aerodrome Forecast
Issued by NWS Green Bay, WI

Home | Current Version | Previous Version | Graphics & Text | Print | Product List | Glossary On
Versions: 1 2 3 4 5 6 7 8 9 10 11 12 13 14 15 16 17 18 19 20 21 22 23 24 25 26 27 28 29 30 31 32
642
FTUS43 KGRB 242344
TAFGRB
TAF
KGRB 242344Z 2500/2524 18010KT P6SM FEW050
     FM250100 17006KT P6SM SKC
     FM250600 19004KT P6SM SKC
      TEMPO 2509/2513 5SM BR
     FM251300 19005KT P6SM SCT250
     FM251700 19008KT P6SM FEW050 SCT250=

USA.gov is the U.S. government's official web portal to all federal, state and local government web resources and services.